createdAt,value
2023-06-23T00:01:07.815Z,11.80
2023-06-23T00:03:36.505Z,10.80
2023-06-23T00:06:05.143Z,10.30
2023-06-23T00:08:32.754Z,12.70
2023-06-23T00:11:00.307Z,10.10
2023-06-23T00:13:28.751Z,10.40
2023-06-23T00:15:58.732Z,12.70
2023-06-23T00:18:26.333Z,14.70
2023-06-23T00:20:55.717Z,11.37
2023-06-23T00:23:27.469Z,9.47
2023-06-23T00:25:55.149Z,11.90
2023-06-23T00:28:22.665Z,11.50
2023-06-23T00:30:51.004Z,11.50
2023-06-23T00:33:21.224Z,13.80
2023-06-23T00:35:49.025Z,14.83
2023-06-23T00:38:16.780Z,10.60
2023-06-23T00:40:45.188Z,14.63
2023-06-23T00:43:13.210Z,9.50
2023-06-23T00:45:41.760Z,13.67
2023-06-23T00:48:09.483Z,11.00
2023-06-23T00:50:38.481Z,12.10
2023-06-23T00:53:06.561Z,12.10
2023-06-23T00:55:38.537Z,13.40
2023-06-23T00:58:09.266Z,11.83
2023-06-23T01:00:37.117Z,12.17
2023-06-23T01:03:05.434Z,13.07
2023-06-23T01:05:36.166Z,14.43
2023-06-23T01:08:17.725Z,13.07
2023-06-23T01:10:53.610Z,11.80
2023-06-23T01:13:28.345Z,18.57
2023-06-23T01:15:59.288Z,18.07
2023-06-23T01:18:36.424Z,16.63
2023-06-23T01:21:06.911Z,14.63
2023-06-23T01:24:08.195Z,14.17
2023-06-23T01:26:50.685Z,13.13
2023-06-23T01:29:23.331Z,13.53
2023-06-23T01:31:57.154Z,14.27
2023-06-23T01:34:30.196Z,11.07
2023-06-23T01:37:05.153Z,14.50
2023-06-23T01:39:36.929Z,12.17
2023-06-23T01:42:09.592Z,13.20
2023-06-23T01:44:40.688Z,15.20
2023-06-23T01:47:16.717Z,13.83
2023-06-23T01:49:47.371Z,15.73
2023-06-23T01:52:16.390Z,17.53
2023-06-23T01:54:45.482Z,15.00
2023-06-23T01:57:16.564Z,14.10
2023-06-23T01:59:47.719Z,16.00
2023-06-23T02:02:17.970Z,14.90
2023-06-23T02:04:47.523Z,16.70
2023-06-23T02:07:19.258Z,16.00
2023-06-23T02:09:48.171Z,18.77
2023-06-23T02:12:18.649Z,14.30
2023-06-23T02:14:50.866Z,14.47
2023-06-23T02:17:19.872Z,11.93
2023-06-23T02:19:49.491Z,15.43
2023-06-23T02:22:21.406Z,15.00
2023-06-23T02:24:50.031Z,15.20
2023-06-23T02:27:19.401Z,21.57
2023-06-23T02:29:48.960Z,20.20
2023-06-23T02:32:18.403Z,21.30
2023-06-23T02:34:47.574Z,16.70
2023-06-23T02:37:21.597Z,16.23
2023-06-23T02:39:57.571Z,16.17
2023-06-23T02:42:31.936Z,17.63
2023-06-23T02:45:05.476Z,17.90
2023-06-23T02:47:38.377Z,15.43
2023-06-23T02:50:09.434Z,18.60
2023-06-23T02:52:37.893Z,15.20
2023-06-23T02:55:09.934Z,17.73
2023-06-23T02:57:39.780Z,19.23
2023-06-23T03:00:14.253Z,20.47
2023-06-23T03:02:43.702Z,18.07
2023-06-23T03:05:11.794Z,16.40
2023-06-23T03:07:40.065Z,19.80
2023-06-23T03:10:08.692Z,19.90
2023-06-23T03:12:36.621Z,16.87
2023-06-23T03:15:06.973Z,18.60
2023-06-23T03:17:41.031Z,16.90
2023-06-23T03:20:12.969Z,18.10
2023-06-23T03:22:45.571Z,16.90
2023-06-23T03:25:16.741Z,18.30
2023-06-23T03:27:45.330Z,15.23
2023-06-23T03:30:20.309Z,17.87
2023-06-23T03:32:52.064Z,16.87
2023-06-23T03:35:25.018Z,19.50
2023-06-23T03:38:00.431Z,18.20
2023-06-23T03:40:31.058Z,21.50
2023-06-23T03:43:07.182Z,17.93
2023-06-23T03:45:36.744Z,16.47
2023-06-23T03:48:10.147Z,19.37
2023-06-23T03:50:40.107Z,19.50
2023-06-23T03:53:09.082Z,21.30
2023-06-23T03:55:39.936Z,19.53
2023-06-23T03:58:09.831Z,19.43
2023-06-23T04:00:38.702Z,18.03
2023-06-23T04:03:09.714Z,19.47
2023-06-23T04:05:40.965Z,17.00
2023-06-23T04:08:11.201Z,17.53
2023-06-23T04:10:40.327Z,17.37
2023-06-23T04:13:10.533Z,20.00
2023-06-23T04:15:40.023Z,18.10
2023-06-23T04:18:12.811Z,16.20
2023-06-23T04:20:42.330Z,13.03
2023-06-23T04:23:12.274Z,12.30
2023-06-23T04:25:42.009Z,11.10
2023-06-23T04:28:13.513Z,11.03
2023-06-23T04:30:43.088Z,9.83
2023-06-23T04:33:12.106Z,8.30
2023-06-23T04:35:40.092Z,8.20
2023-06-23T04:38:13.041Z,8.37
2023-06-23T04:40:43.333Z,7.93
2023-06-23T04:43:14.597Z,7.90
2023-06-23T04:45:45.759Z,9.13
2023-06-23T04:48:15.811Z,7.20
2023-06-23T04:50:45.120Z,7.00
2023-06-23T04:53:18.882Z,7.23
2023-06-23T04:55:51.777Z,6.77
2023-06-23T04:58:22.405Z,7.07
2023-06-23T05:00:51.429Z,6.80
2023-06-23T05:03:22.553Z,7.03
2023-06-23T05:05:55.649Z,7.60
2023-06-23T05:08:27.285Z,7.73
2023-06-23T05:10:58.159Z,9.33
2023-06-23T05:16:22.348Z,8.10
2023-06-23T05:18:52.416Z,8.80
2023-06-23T05:21:23.150Z,7.10
2023-06-23T05:23:54.215Z,7.17
2023-06-23T05:26:25.734Z,8.93
2023-06-23T05:28:55.536Z,7.10
2023-06-23T05:31:25.461Z,7.17
2023-06-23T05:33:56.775Z,7.80
2023-06-23T05:36:25.494Z,8.50
2023-06-23T05:38:55.453Z,9.73
2023-06-23T05:41:23.140Z,10.30
2023-06-23T05:43:50.712Z,7.10
2023-06-23T05:46:21.737Z,9.33
2023-06-23T05:48:53.239Z,9.77
2023-06-23T05:51:27.421Z,10.10
2023-06-23T05:53:58.071Z,7.87
2023-06-23T05:56:32.561Z,8.73
2023-06-23T05:59:04.682Z,8.50
2023-06-23T06:01:36.733Z,8.70
2023-06-23T06:04:08.325Z,7.70
2023-06-23T06:06:40.081Z,8.97
2023-06-23T06:09:09.896Z,10.33
2023-06-23T06:11:39.407Z,7.73
2023-06-23T06:14:09.754Z,10.17
2023-06-23T06:16:38.359Z,7.97
2023-06-23T06:19:07.742Z,9.73
2023-06-23T06:21:39.356Z,10.07
2023-06-23T06:24:10.859Z,11.10
2023-06-23T06:26:38.445Z,8.67
2023-06-23T06:29:08.223Z,9.93
2023-06-23T06:31:36.216Z,10.73
2023-06-23T06:34:04.936Z,9.13
2023-06-23T06:36:36.270Z,8.80
2023-06-23T06:39:06.922Z,9.50
2023-06-23T06:41:36.809Z,8.77
2023-06-23T06:44:04.917Z,10.87
2023-06-23T06:46:32.515Z,12.50
2023-06-23T06:49:01.201Z,9.73
2023-06-23T06:51:29.704Z,9.97
2023-06-23T06:53:57.321Z,10.30
2023-06-23T06:56:26.682Z,8.97
2023-06-23T06:58:54.273Z,11.17
2023-06-23T07:01:21.993Z,8.83
2023-06-23T07:03:50.315Z,8.90
2023-06-23T07:06:17.931Z,9.73
2023-06-23T07:08:45.433Z,10.77
2023-06-23T07:11:14.260Z,12.17
2023-06-23T07:13:43.261Z,11.40
2023-06-23T07:16:10.818Z,9.80
2023-06-23T07:18:38.548Z,11.73
2023-06-23T07:21:06.123Z,13.07
2023-06-23T07:23:33.640Z,10.53
2023-06-23T07:26:01.150Z,10.33
2023-06-23T07:28:28.705Z,11.73
2023-06-23T07:30:57.625Z,10.03
2023-06-23T07:33:25.233Z,10.50
2023-06-23T07:35:52.755Z,18.20
2023-06-23T07:38:20.238Z,11.47
2023-06-23T07:40:48.366Z,11.97
2023-06-23T07:43:15.955Z,10.37
2023-06-23T07:45:43.560Z,12.10
2023-06-23T07:48:12.419Z,13.77
2023-06-23T07:50:39.944Z,10.87
2023-06-23T07:53:07.496Z,12.13
2023-06-23T07:55:35.068Z,12.50
2023-06-23T07:58:02.664Z,12.53
2023-06-23T08:00:30.462Z,11.70
2023-06-23T08:02:58.239Z,12.47
2023-06-23T08:05:27.427Z,14.70
2023-06-23T08:07:54.951Z,15.10
2023-06-23T08:10:22.561Z,11.90
2023-06-23T08:12:50.136Z,14.03
2023-06-23T08:15:17.655Z,14.50
2023-06-23T08:17:45.232Z,12.70
2023-06-23T08:20:13.589Z,13.23
2023-06-23T08:22:43.351Z,11.37
2023-06-23T08:25:11.002Z,12.10
2023-06-23T08:27:38.542Z,18.57
2023-06-23T08:30:08.084Z,12.30
2023-06-23T08:32:35.729Z,11.03
2023-06-23T08:35:03.702Z,12.77
2023-06-23T08:37:32.948Z,12.07
2023-06-23T08:40:02.049Z,12.00
2023-06-23T08:42:29.848Z,11.13
2023-06-23T08:45:00.442Z,13.30
2023-06-23T08:47:31.789Z,12.13
2023-06-23T08:50:00.518Z,13.90
2023-06-23T08:52:28.252Z,12.67
2023-06-23T08:54:55.879Z,12.87
2023-06-23T08:57:25.623Z,12.13
2023-06-23T08:59:53.154Z,13.50
2023-06-23T09:02:20.674Z,13.40
2023-06-23T09:04:48.360Z,12.83
2023-06-23T09:07:16.082Z,10.90
2023-06-23T09:09:46.794Z,11.27
2023-06-23T09:12:17.628Z,10.23
2023-06-23T09:14:46.511Z,11.67
2023-06-23T09:17:15.298Z,11.03
2023-06-23T09:19:44.403Z,9.13
2023-06-23T09:22:12.470Z,10.60
2023-06-23T09:24:44.636Z,10.70
2023-06-23T09:27:12.705Z,14.80
2023-06-23T09:29:40.198Z,9.77
2023-06-23T09:32:10.394Z,14.00
2023-06-23T09:34:39.496Z,11.50
2023-06-23T09:37:09.094Z,12.90
2023-06-23T09:39:38.090Z,12.30
2023-06-23T09:42:09.603Z,13.53
2023-06-23T09:44:38.767Z,12.23
2023-06-23T09:47:07.838Z,15.33
2023-06-23T09:49:41.175Z,13.40
2023-06-23T09:52:10.432Z,11.97
2023-06-23T09:54:40.544Z,12.50
2023-06-23T09:57:09.619Z,12.37
2023-06-23T09:59:39.889Z,12.83
2023-06-23T10:02:09.065Z,11.00
2023-06-23T10:04:37.067Z,13.13
2023-06-23T10:07:21.946Z,12.97
2023-06-23T10:10:01.716Z,14.13
2023-06-23T10:12:34.758Z,11.50
2023-06-23T10:15:02.308Z,10.60
2023-06-23T10:17:29.902Z,12.27
2023-06-23T10:19:57.876Z,10.77
2023-06-23T10:22:27.838Z,10.47
2023-06-23T10:24:56.312Z,12.17
2023-06-23T10:27:25.757Z,11.37
2023-06-23T10:29:55.100Z,11.07
2023-06-23T10:32:24.241Z,13.20
2023-06-23T10:34:52.455Z,11.97
2023-06-23T10:37:31.834Z,15.30
2023-06-23T10:40:15.319Z,12.13
2023-06-23T10:42:44.851Z,11.33
2023-06-23T10:45:12.752Z,12.50
2023-06-23T10:47:41.226Z,11.30
2023-06-23T10:50:10.656Z,13.40
2023-06-23T10:52:38.414Z,13.23
2023-06-23T10:55:37.972Z,11.47
2023-06-23T10:58:14.042Z,14.70
2023-06-23T11:00:46.405Z,14.27
2023-06-23T11:03:26.590Z,13.57
2023-06-23T11:05:55.372Z,18.03
2023-06-23T11:08:30.481Z,14.20
2023-06-23T11:11:07.940Z,14.60
2023-06-23T11:13:38.315Z,16.67
2023-06-23T11:16:07.330Z,13.10
2023-06-23T11:18:34.889Z,14.27
2023-06-23T11:21:04.848Z,13.10
2023-06-23T11:23:32.436Z,21.13
2023-06-23T11:26:00.284Z,14.67
2023-06-23T11:28:31.204Z,18.70
2023-06-23T11:31:07.550Z,12.30
2023-06-23T11:33:38.086Z,21.17
2023-06-23T11:36:07.775Z,17.87
2023-06-23T11:38:38.247Z,16.67
2023-06-23T11:41:05.960Z,14.73
2023-06-23T11:43:35.662Z,15.40
2023-06-23T11:46:08.910Z,18.40
2023-06-23T11:48:38.178Z,17.33
2023-06-23T11:51:07.682Z,20.73
2023-06-23T11:53:35.695Z,19.63
2023-06-23T11:56:03.858Z,17.03
2023-06-23T11:58:32.690Z,18.70
2023-06-23T12:01:02.516Z,15.70
2023-06-23T12:03:31.979Z,19.70
2023-06-23T12:06:01.154Z,14.97
2023-06-23T12:08:29.181Z,17.00
2023-06-23T12:10:57.758Z,14.50
2023-06-23T12:13:25.490Z,15.73
2023-06-23T12:15:58.282Z,20.03
2023-06-23T12:18:27.969Z,21.80
2023-06-23T12:20:55.610Z,16.93
2023-06-23T12:23:23.662Z,19.87
2023-06-23T12:25:52.073Z,20.73
2023-06-23T12:28:21.183Z,18.20
2023-06-23T12:30:51.626Z,18.00
2023-06-23T12:33:22.973Z,20.17
2023-06-23T12:36:00.174Z,19.30
2023-06-23T12:38:28.284Z,19.73
2023-06-23T12:40:56.993Z,21.00
2023-06-23T12:43:24.548Z,19.67
2023-06-23T12:45:55.222Z,20.10
2023-06-23T12:48:24.024Z,15.97
2023-06-23T12:50:55.201Z,21.63
2023-06-23T12:53:24.068Z,17.10
2023-06-23T12:55:52.176Z,17.50
2023-06-23T12:58:19.712Z,17.30
2023-06-23T13:00:47.231Z,19.20
2023-06-23T13:03:19.502Z,18.30
2023-06-23T13:05:48.306Z,25.00
2023-06-23T13:08:16.294Z,21.50
2023-06-23T13:10:45.419Z,17.10
2023-06-23T13:13:13.282Z,19.13
2023-06-23T13:15:40.992Z,24.73
2023-06-23T13:18:08.757Z,18.37
2023-06-23T13:20:36.677Z,15.07
2023-06-23T13:23:04.284Z,17.93
2023-06-23T13:25:32.041Z,16.30
2023-06-23T13:28:01.187Z,17.43
2023-06-23T13:30:29.450Z,18.10
2023-06-23T13:32:57.136Z,17.90
2023-06-23T13:35:24.878Z,16.80
2023-06-23T13:37:52.489Z,16.90
2023-06-23T13:40:19.985Z,18.70
2023-06-23T13:42:47.464Z,14.53
2023-06-23T13:45:16.289Z,23.80
2023-06-23T13:47:43.887Z,19.30
2023-06-23T13:50:15.753Z,18.77
2023-06-23T13:52:44.254Z,20.27
2023-06-23T13:55:13.851Z,16.20
2023-06-23T13:57:45.386Z,19.73
2023-06-23T14:00:16.432Z,13.83
2023-06-23T14:02:44.057Z,17.97
2023-06-23T14:05:13.279Z,17.47
2023-06-23T14:07:41.096Z,18.53
2023-06-23T14:10:09.611Z,15.97
2023-06-23T14:12:37.264Z,18.50
2023-06-23T14:15:05.589Z,17.37
2023-06-23T14:17:34.844Z,19.97
2023-06-23T14:20:02.536Z,22.30
2023-06-23T14:22:30.085Z,19.80
2023-06-23T14:24:57.590Z,18.20
2023-06-23T14:27:25.116Z,19.00
2023-06-23T14:29:52.691Z,19.67
2023-06-23T14:32:20.271Z,16.47
2023-06-23T14:34:49.230Z,19.47
2023-06-23T14:37:16.907Z,19.90
2023-06-23T14:39:44.426Z,21.50
2023-06-23T14:42:11.930Z,17.63
2023-06-23T14:44:39.445Z,20.83
2023-06-23T14:47:07.925Z,24.50
2023-06-23T14:49:35.724Z,22.00
2023-06-23T14:52:05.104Z,21.73
2023-06-23T14:54:32.933Z,24.70
2023-06-23T14:57:00.508Z,19.30
2023-06-23T14:59:28.096Z,19.43
2023-06-23T15:01:56.800Z,16.67
2023-06-23T15:04:24.612Z,17.53
2023-06-23T15:06:52.925Z,28.43
2023-06-23T15:09:22.003Z,16.90
2023-06-23T15:11:49.571Z,14.97
2023-06-23T15:14:17.138Z,14.10
2023-06-23T15:16:44.693Z,14.50
2023-06-23T15:19:12.228Z,15.43
2023-06-23T15:21:39.795Z,14.90
2023-06-23T15:24:07.911Z,11.23
2023-06-23T15:26:37.437Z,16.70
2023-06-23T15:29:06.913Z,15.07
2023-06-23T15:31:34.512Z,14.63
2023-06-23T15:34:02.057Z,14.40
2023-06-23T15:36:30.421Z,13.47
2023-06-23T15:38:58.722Z,14.70
2023-06-23T15:41:26.403Z,13.70
2023-06-23T15:43:55.292Z,15.00
2023-06-23T15:46:22.821Z,12.60
2023-06-23T15:48:50.404Z,15.00
2023-06-23T15:51:18.062Z,17.93
2023-06-23T15:53:45.633Z,13.37
2023-06-23T15:56:13.171Z,13.57
2023-06-23T15:58:40.736Z,12.63
2023-06-23T16:01:09.678Z,14.40
2023-06-23T16:03:37.432Z,12.60
2023-06-23T16:06:05.381Z,15.30
2023-06-23T16:08:34.528Z,14.53
2023-06-23T16:11:02.012Z,13.50
2023-06-23T16:13:29.507Z,14.13
2023-06-23T16:15:57.110Z,12.20
2023-06-23T16:18:26.056Z,12.20
2023-06-23T16:20:53.601Z,12.33
2023-06-23T16:23:21.129Z,12.30
2023-06-23T16:25:48.900Z,11.33
2023-06-23T16:28:16.597Z,10.87
2023-06-23T16:30:44.634Z,8.90
2023-06-23T16:33:12.202Z,9.83
2023-06-23T16:35:41.615Z,9.87
2023-06-23T16:38:09.186Z,15.60
2023-06-23T16:40:36.669Z,9.80
2023-06-23T16:43:05.488Z,9.87
2023-06-23T16:45:33.467Z,10.67
2023-06-23T16:48:01.309Z,11.47
2023-06-23T16:50:28.906Z,11.37
2023-06-23T16:52:57.808Z,12.17
2023-06-23T16:55:25.339Z,9.40
2023-06-23T16:57:52.886Z,9.83
2023-06-23T17:00:21.176Z,12.17
2023-06-23T17:02:48.959Z,10.10
2023-06-23T17:05:16.733Z,8.97
2023-06-23T17:07:44.273Z,9.67
2023-06-23T17:10:13.253Z,9.17
2023-06-23T17:12:40.848Z,8.17
2023-06-23T17:15:09.500Z,9.27
2023-06-23T17:17:37.082Z,9.17
2023-06-23T17:20:05.552Z,9.37
2023-06-23T17:22:33.249Z,9.10
2023-06-23T17:25:00.921Z,8.80
2023-06-23T17:27:29.801Z,9.40
2023-06-23T17:29:57.327Z,8.53
2023-06-23T17:32:24.869Z,9.87
2023-06-23T17:34:53.007Z,7.90
2023-06-23T17:37:20.520Z,8.70
2023-06-23T17:39:48.027Z,8.23
2023-06-23T17:42:15.538Z,10.83
2023-06-23T17:44:44.387Z,9.47
2023-06-23T17:47:11.939Z,9.67
2023-06-23T17:49:39.483Z,8.50
2023-06-23T17:52:07.812Z,7.67
2023-06-23T17:54:35.938Z,9.33
2023-06-23T17:57:03.804Z,9.97
2023-06-23T17:59:31.407Z,8.50
2023-06-23T18:02:02.213Z,9.23
2023-06-23T18:04:29.854Z,8.30
2023-06-23T18:06:57.593Z,13.47
2023-06-23T18:09:25.106Z,12.47
2023-06-23T18:11:52.697Z,9.60
2023-06-23T18:14:20.221Z,9.90
2023-06-23T18:16:47.834Z,7.67
2023-06-23T18:19:18.464Z,10.00
2023-06-23T18:21:48.066Z,9.33
2023-06-23T18:24:15.575Z,9.90
2023-06-23T18:26:43.272Z,9.50
2023-06-23T18:29:10.930Z,9.10
2023-06-23T18:31:39.563Z,8.30
2023-06-23T18:34:07.675Z,8.23
2023-06-23T18:36:36.565Z,10.33
2023-06-23T18:39:04.220Z,10.10
2023-06-23T18:41:34.358Z,8.00
2023-06-23T18:44:01.888Z,11.40
2023-06-23T18:46:29.418Z,8.00
2023-06-23T18:48:57.129Z,9.77
2023-06-23T18:51:24.619Z,9.03
2023-06-23T18:53:53.543Z,11.07
2023-06-23T18:56:21.100Z,8.17
2023-06-23T18:58:49.739Z,9.33
2023-06-23T19:01:17.285Z,8.40
2023-06-23T19:03:44.931Z,10.93
2023-06-23T19:06:13.742Z,9.83
2023-06-23T19:08:41.283Z,9.10
2023-06-23T19:11:10.183Z,8.10
2023-06-23T19:13:39.138Z,7.87
2023-06-23T19:16:06.670Z,8.03
2023-06-23T19:18:34.173Z,9.23
2023-06-23T19:21:01.883Z,7.60
2023-06-23T19:23:29.580Z,8.40
2023-06-23T19:25:57.113Z,9.03
2023-06-23T19:28:25.963Z,9.80
2023-06-23T19:30:53.630Z,9.43
2023-06-23T19:33:45.925Z,7.40
2023-06-23T19:36:13.445Z,8.20
2023-06-23T19:38:41.004Z,8.40
2023-06-23T19:41:08.706Z,8.10
2023-06-23T19:43:37.528Z,10.83
2023-06-23T19:46:05.074Z,10.13
2023-06-23T19:48:32.703Z,8.50
2023-06-23T19:51:00.202Z,9.07
2023-06-23T19:53:27.947Z,8.47
2023-06-23T19:55:55.473Z,8.67
2023-06-23T19:58:22.987Z,10.97
2023-06-23T20:00:51.914Z,8.10
2023-06-23T20:03:19.501Z,8.73
2023-06-23T20:05:47.164Z,7.57
2023-06-23T20:08:14.715Z,8.33
2023-06-23T20:10:42.257Z,8.20
2023-06-23T20:13:10.346Z,9.13
2023-06-23T20:15:37.837Z,9.50
2023-06-23T20:18:06.883Z,8.30
2023-06-23T20:20:34.709Z,9.70
2023-06-23T20:23:03.221Z,7.30
2023-06-23T20:25:30.795Z,9.53
2023-06-23T20:27:58.373Z,7.73
2023-06-23T20:30:25.869Z,7.97
2023-06-23T20:32:53.754Z,10.57
2023-06-23T20:35:22.849Z,9.23
2023-06-23T20:37:50.531Z,9.03
2023-06-23T20:40:19.945Z,10.37
2023-06-23T20:42:47.441Z,8.37
2023-06-23T20:45:16.867Z,11.77
2023-06-23T20:47:45.072Z,10.30
2023-06-23T20:50:12.785Z,10.83
2023-06-23T20:52:41.621Z,7.80
2023-06-23T20:55:09.770Z,9.10
2023-06-23T20:57:37.753Z,11.03
2023-06-23T21:00:09.355Z,11.10
2023-06-23T21:02:36.977Z,10.00
2023-06-23T21:05:04.877Z,12.57
2023-06-23T21:07:32.771Z,8.53
2023-06-23T21:10:02.787Z,13.07
2023-06-23T21:12:33.392Z,13.00
2023-06-23T21:15:05.571Z,13.47
2023-06-23T21:17:34.212Z,9.30
2023-06-23T21:20:01.818Z,11.83
2023-06-23T21:22:29.378Z,12.23
2023-06-23T21:24:56.898Z,14.87
2023-06-23T21:27:25.801Z,11.10
2023-06-23T21:29:53.788Z,12.63
2023-06-23T21:32:21.649Z,18.97
2023-06-23T21:34:49.187Z,13.30
2023-06-23T21:37:17.230Z,14.17
2023-06-23T21:39:44.907Z,19.60
2023-06-23T21:42:12.428Z,12.53
2023-06-23T21:44:41.886Z,12.60
2023-06-23T21:47:09.613Z,17.07
2023-06-23T21:49:37.108Z,12.13
2023-06-23T21:52:04.942Z,15.17
2023-06-23T21:54:32.443Z,15.87
2023-06-23T21:57:01.058Z,11.73
2023-06-23T21:59:28.593Z,15.33
2023-06-23T22:01:57.994Z,12.80
2023-06-23T22:04:25.563Z,16.23
2023-06-23T22:06:53.087Z,12.90
2023-06-23T22:09:20.645Z,14.40
2023-06-23T22:11:48.177Z,15.77
2023-06-23T22:14:18.644Z,14.17
2023-06-23T22:16:46.507Z,13.17
2023-06-23T22:19:15.450Z,14.17
2023-06-23T22:21:43.288Z,13.30
2023-06-23T22:24:10.802Z,12.27
2023-06-23T22:26:38.370Z,12.43
2023-06-23T22:29:06.119Z,13.63
2023-06-23T22:31:33.752Z,14.83
2023-06-23T22:34:01.418Z,16.37
2023-06-23T22:36:36.128Z,12.50
2023-06-23T22:39:04.928Z,9.60
2023-06-23T22:41:32.545Z,12.10
2023-06-23T22:44:00.079Z,9.43
2023-06-23T22:46:27.915Z,10.67
2023-06-23T22:48:57.227Z,12.03
2023-06-23T22:51:25.317Z,13.83
2023-06-23T22:53:54.104Z,13.20
2023-06-23T22:56:21.699Z,10.77
2023-06-23T22:58:49.659Z,11.60
2023-06-23T23:01:18.466Z,10.23
2023-06-23T23:03:46.032Z,11.70
2023-06-23T23:06:13.549Z,11.17
2023-06-23T23:08:41.119Z,9.67
2023-06-23T23:11:10.212Z,11.87
2023-06-23T23:13:37.747Z,10.20
2023-06-23T23:16:05.755Z,11.33
2023-06-23T23:18:33.274Z,11.73
2023-06-23T23:21:00.938Z,11.47
2023-06-23T23:23:32.289Z,12.70
2023-06-23T23:25:59.962Z,11.50
2023-06-23T23:28:30.047Z,11.20
2023-06-23T23:30:58.106Z,14.93
2023-06-23T23:33:25.842Z,12.23
2023-06-23T23:35:53.362Z,12.80
2023-06-23T23:38:21.070Z,16.73
2023-06-23T23:40:48.812Z,11.20
2023-06-23T23:43:16.303Z,12.63
2023-06-23T23:45:45.178Z,11.97
2023-06-23T23:48:12.719Z,12.17
2023-06-23T23:50:40.214Z,10.53
2023-06-23T23:53:07.752Z,10.53
2023-06-23T23:55:35.297Z,10.83
2023-06-23T23:58:02.997Z,17.50
